createdAt,value
2024-02-13T00:00:01.572Z,90.4
2024-02-13T00:01:01.717Z,90.4
2024-02-13T00:02:01.817Z,90.4
2024-02-13T00:03:02.115Z,90.3
2024-02-13T00:04:02.086Z,90.2
2024-02-13T00:05:03.775Z,90
2024-02-13T00:06:02.263Z,90
2024-02-13T00:07:01.305Z,90
2024-02-13T00:08:01.536Z,90
2024-02-13T00:09:03.458Z,90
2024-02-13T00:10:03.309Z,90
2024-02-13T00:11:01.747Z,90
2024-02-13T00:12:01.873Z,90
2024-02-13T00:13:01.967Z,90
2024-02-13T00:14:03.669Z,90
2024-02-13T00:15:03.856Z,90
2024-02-13T00:16:02.872Z,90
2024-02-13T00:17:01.390Z,90
2024-02-13T00:18:01.602Z,90
2024-02-13T00:19:01.656Z,90.1
2024-02-13T00:20:01.702Z,90.1
2024-02-13T00:21:01.806Z,90.1
2024-02-13T00:22:01.895Z,90.1
2024-02-13T00:23:02.034Z,90.1
2024-02-13T00:24:02.144Z,90.1
2024-02-13T00:25:02.304Z,90.1
2024-02-13T00:26:02.935Z,90.1
2024-02-13T00:27:01.417Z,90.2
2024-02-13T00:28:03.202Z,90.2
2024-02-13T00:29:01.616Z,90.2
2024-02-13T00:30:03.432Z,90.2
2024-02-13T00:31:01.837Z,90.2
2024-02-13T00:32:03.588Z,90.3
2024-02-13T00:33:02.324Z,90.2
2024-02-13T00:34:02.193Z,90
2024-02-13T00:35:02.932Z,89.9
2024-02-13T00:36:01.343Z,89.9
2024-02-13T00:37:03.087Z,89.9
2024-02-13T00:38:03.192Z,89.9
2024-02-13T00:39:01.744Z,89.9
2024-02-13T00:40:03.420Z,90
2024-02-13T00:41:03.538Z,90
2024-02-13T00:42:01.997Z,89.8
2024-02-13T00:43:03.751Z,89.7
2024-02-13T00:44:03.807Z,89.7
2024-02-13T00:45:02.903Z,89.6
2024-02-13T00:46:03.052Z,89.6
2024-02-13T00:47:03.203Z,89.5
2024-02-13T00:48:01.720Z,89.5
2024-02-13T00:49:03.344Z,89.5
2024-02-13T00:50:01.845Z,89.3
2024-02-13T00:51:02.076Z,89.2
2024-02-13T00:52:01.991Z,89.1
2024-02-13T00:53:02.091Z,89
2024-02-13T00:54:03.827Z,89
2024-02-13T00:55:03.000Z,88.8
2024-02-13T00:56:01.421Z,88.6
2024-02-13T00:57:01.584Z,88.4
2024-02-13T00:58:03.276Z,88.2
2024-02-13T00:59:01.785Z,88.1
2024-02-13T01:00:03.498Z,88.1
2024-02-13T01:01:03.580Z,88.1
2024-02-13T01:02:02.074Z,88.1
2024-02-13T01:03:03.869Z,88.1
2024-02-13T01:04:01.313Z,88.1
2024-02-13T01:05:03.035Z,88
2024-02-13T01:06:01.518Z,88.1
2024-02-13T01:07:01.676Z,88
2024-02-13T01:08:01.699Z,87.9
2024-02-13T01:09:01.784Z,87.9
2024-02-13T01:10:01.848Z,88
2024-02-13T01:11:02.000Z,87.8
2024-02-13T01:12:02.120Z,87.8
2024-02-13T01:13:03.858Z,87.9
2024-02-13T01:14:02.896Z,87.9
2024-02-13T01:15:03.053Z,87.8
2024-02-13T01:16:03.127Z,87.7
2024-02-13T01:17:01.628Z,87.8
2024-02-13T01:18:03.480Z,87.8
2024-02-13T01:19:03.552Z,87.8
2024-02-13T01:20:03.585Z,87.8
2024-02-13T01:21:02.051Z,87.8
2024-02-13T01:22:02.611Z,87.8
2024-02-13T01:23:01.305Z,87.7
2024-02-13T01:24:03.062Z,87.6
2024-02-13T01:25:01.511Z,87.6
2024-02-13T01:26:01.605Z,87.6
2024-02-13T01:27:03.349Z,87.5
2024-02-13T01:28:01.788Z,87.2
2024-02-13T01:29:03.525Z,87.1
2024-02-13T01:30:03.614Z,86.9
2024-02-13T01:31:03.773Z,86.9
2024-02-13T01:32:02.187Z,86.6
2024-02-13T01:33:03.132Z,86.7
2024-02-13T01:34:01.602Z,86.6
2024-02-13T01:35:01.622Z,86.6
2024-02-13T01:36:03.261Z,86.4
2024-02-13T01:37:03.358Z,86.4
2024-02-13T01:38:03.500Z,86.4
2024-02-13T01:39:02.006Z,86.5
2024-02-13T01:40:03.682Z,86.4
2024-02-13T01:41:02.110Z,86.4
2024-02-13T01:42:02.213Z,86.2
2024-02-13T01:43:03.065Z,86.3
2024-02-13T01:44:03.198Z,86.3
2024-02-13T01:45:01.549Z,86.3
2024-02-13T01:46:01.655Z,86.2
2024-02-13T01:47:03.398Z,86.2
2024-02-13T01:48:01.985Z,86.2
2024-02-13T01:49:02.059Z,86.3
2024-02-13T01:50:03.713Z,86.3
2024-02-13T01:51:03.821Z,86.4
2024-02-13T01:52:01.330Z,86.5
2024-02-13T01:53:01.387Z,86.5
2024-02-13T01:54:01.611Z,86.5
2024-02-13T01:55:01.594Z,86.5
2024-02-13T01:56:03.386Z,86.4
2024-02-13T01:57:03.475Z,86.3
2024-02-13T01:58:01.913Z,86.1
2024-02-13T01:59:02.075Z,86.1
2024-02-13T02:00:03.791Z,86.1
2024-02-13T02:01:03.892Z,86.1
2024-02-13T02:02:01.338Z,86.1
2024-02-13T02:03:03.087Z,86
2024-02-13T02:04:01.751Z,86
2024-02-13T02:05:01.639Z,86
2024-02-13T02:06:03.577Z,86.1
2024-02-13T02:07:03.568Z,86.1
2024-02-13T02:08:01.923Z,86.1
2024-02-13T02:09:03.804Z,86.1
2024-02-13T02:10:02.170Z,86.1
2024-02-13T02:11:02.948Z,86.1
2024-02-13T02:12:03.028Z,86.1
2024-02-13T02:13:01.470Z,86
2024-02-13T02:14:04.098Z,86
2024-02-13T02:15:03.295Z,85.9
2024-02-13T02:16:01.805Z,85.8
2024-02-13T02:17:01.859Z,85.7
2024-02-13T02:18:02.091Z,85.7
2024-02-13T02:19:02.233Z,85.7
2024-02-13T02:20:02.201Z,85.8
2024-02-13T02:21:01.345Z,85.9
2024-02-13T02:22:01.390Z,86
2024-02-13T02:23:01.497Z,85.9
2024-02-13T02:24:01.653Z,86
2024-02-13T02:25:01.761Z,85.9
2024-02-13T02:26:03.459Z,85.9
2024-02-13T02:27:01.934Z,85.9
2024-02-13T02:28:02.004Z,85.7
2024-02-13T02:29:02.129Z,85.6
2024-02-13T02:30:02.265Z,85.9
2024-02-13T02:31:03.063Z,86.1
2024-02-13T02:32:01.459Z,86.1
2024-02-13T02:33:01.739Z,86
2024-02-13T02:34:01.675Z,85.9
2024-02-13T02:35:01.859Z,85.8
2024-02-13T02:36:01.948Z,85.8
2024-02-13T02:37:01.992Z,85.9
2024-02-13T02:38:03.732Z,86.1
2024-02-13T02:39:03.951Z,86.1
2024-02-13T02:40:02.955Z,86.2
2024-02-13T02:41:01.411Z,86.2
2024-02-13T02:42:01.490Z,86.1
2024-02-13T02:43:01.611Z,86.1
2024-02-13T02:44:03.376Z,86.1
2024-02-13T02:45:01.810Z,86.2
2024-02-13T02:46:03.558Z,86.3
2024-02-13T02:47:03.658Z,86.4
2024-02-13T02:48:02.275Z,86.4
2024-02-13T02:49:02.366Z,86.3
2024-02-13T02:50:02.922Z,86.4
2024-02-13T02:51:03.175Z,86.2
2024-02-13T02:52:01.570Z,86.3
2024-02-13T02:53:01.631Z,86.3
2024-02-13T02:54:03.411Z,86.3
2024-02-13T02:55:01.858Z,86.4
2024-02-13T02:56:01.997Z,86.3
2024-02-13T02:57:02.068Z,86.2
2024-02-13T02:58:03.794Z,86.2
2024-02-13T02:59:01.271Z,86.2
2024-02-13T03:00:03.042Z,86.1
2024-02-13T03:01:01.492Z,86.2
2024-02-13T03:02:01.608Z,86.3
2024-02-13T03:03:03.481Z,86.4
2024-02-13T03:04:03.467Z,86.4
2024-02-13T03:05:01.945Z,86.4
2024-02-13T03:06:02.190Z,86.4
2024-02-13T03:07:03.751Z,86.5
2024-02-13T03:08:02.184Z,86.7
2024-02-13T03:09:02.982Z,86.9
2024-02-13T03:10:03.041Z,87
2024-02-13T03:11:01.542Z,87.1
2024-02-13T03:12:03.262Z,87.2
2024-02-13T03:13:03.349Z,87.1
2024-02-13T03:14:01.823Z,87
2024-02-13T03:15:01.926Z,87.1
2024-02-13T03:16:02.018Z,87.2
2024-02-13T03:17:02.148Z,87.2
2024-02-13T03:18:04.057Z,87.2
2024-02-13T03:19:03.103Z,87.3
2024-02-13T03:20:01.455Z,87.2
2024-02-13T03:21:01.598Z,87.2
2024-02-13T03:22:03.287Z,87.3
2024-02-13T03:23:03.393Z,87.4
2024-02-13T03:24:01.896Z,87.4
2024-02-13T03:25:04.205Z,87.4
2024-02-13T03:26:03.694Z,87.6
2024-02-13T03:27:03.792Z,87.7
2024-02-13T03:28:01.283Z,87.7
2024-02-13T03:29:01.349Z,87.8
2024-02-13T03:30:01.514Z,87.9
2024-02-13T03:31:01.574Z,87.9
2024-02-13T03:32:03.338Z,88
2024-02-13T03:33:02.261Z,88.1
2024-02-13T03:34:01.995Z,88.2
2024-02-13T03:35:02.029Z,88
2024-02-13T03:36:03.759Z,87.9
2024-02-13T03:37:02.224Z,87.8
2024-02-13T03:38:02.963Z,87.7
2024-02-13T03:39:01.373Z,87.6
2024-02-13T03:40:03.129Z,87.4
2024-02-13T03:41:01.633Z,87.4
2024-02-13T03:42:01.739Z,87.4
2024-02-13T03:43:01.795Z,87.4
2024-02-13T03:44:01.949Z,87.4
2024-02-13T03:45:03.655Z,87.2
2024-02-13T03:46:03.801Z,87
2024-02-13T03:47:02.257Z,87
2024-02-13T03:48:01.538Z,86.9
2024-02-13T03:49:01.550Z,86.9
2024-02-13T03:50:03.234Z,86.9
2024-02-13T03:51:01.685Z,86.9
2024-02-13T03:52:01.779Z,87
2024-02-13T03:53:01.862Z,86.9
2024-02-13T03:54:01.990Z,86.9
2024-02-13T03:55:03.724Z,87
2024-02-13T03:56:03.846Z,87
2024-02-13T03:57:01.329Z,87
2024-02-13T03:58:03.046Z,86.9
2024-02-13T03:59:01.514Z,86.8
2024-02-13T04:00:03.280Z,86.8
2024-02-13T04:01:01.727Z,86.7
2024-02-13T04:02:02.046Z,86.6
2024-02-13T04:03:01.912Z,86.8
2024-02-13T04:04:02.116Z,86.9
2024-02-13T04:05:03.761Z,86.9
2024-02-13T04:06:03.991Z,86.9
2024-02-13T04:07:03.002Z,86.8
2024-02-13T04:08:03.076Z,86.8
2024-02-13T04:09:03.214Z,86.7
2024-02-13T04:10:03.256Z,86.8
2024-02-13T04:11:01.758Z,86.8
2024-02-13T04:12:03.516Z,86.7
2024-02-13T04:13:03.608Z,86.7
2024-02-13T04:14:02.079Z,86.8
2024-02-13T04:15:02.256Z,86.9
2024-02-13T04:16:01.269Z,86.9
2024-02-13T04:17:01.367Z,86.8
2024-02-13T04:18:01.564Z,86.9
2024-02-13T04:19:03.225Z,86.9
2024-02-13T04:20:03.348Z,86.9
2024-02-13T04:21:03.434Z,86.9
2024-02-13T04:22:03.542Z,87
2024-02-13T04:23:02.007Z,87.1
2024-02-13T04:24:03.722Z,87.1
2024-02-13T04:25:02.250Z,87.2
2024-02-13T04:26:01.324Z,87.2
2024-02-13T04:27:01.411Z,87.2
2024-02-13T04:28:01.547Z,87.3
2024-02-13T04:29:03.285Z,87.2
2024-02-13T04:30:01.809Z,87.2
2024-02-13T04:31:01.823Z,87.2
2024-02-13T04:32:03.610Z,87.3
2024-02-13T04:33:03.792Z,87.5
2024-02-13T04:34:02.431Z,87.5
2024-02-13T04:35:02.211Z,87.5
2024-02-13T04:36:01.328Z,87.5
2024-02-13T04:37:03.073Z,87.6
2024-02-13T04:38:03.144Z,87.7
2024-02-13T04:39:01.629Z,87.8
2024-02-13T04:40:01.785Z,87.8
2024-02-13T04:41:01.869Z,87.8
2024-02-13T04:42:01.943Z,87.8
2024-02-13T04:43:02.087Z,87.9
2024-02-13T04:44:03.897Z,87.9
2024-02-13T04:45:01.307Z,87.9
2024-02-13T04:46:01.369Z,88
2024-02-13T04:47:01.490Z,88.1
2024-02-13T04:48:01.721Z,88.4
2024-02-13T04:49:03.438Z,88.5
2024-02-13T04:50:01.794Z,88.7
2024-02-13T04:51:03.576Z,88.8
2024-02-13T04:52:02.005Z,88.8
2024-02-13T04:53:03.777Z,88.8
2024-02-13T04:54:02.189Z,88.9
2024-02-13T04:55:01.305Z,89
2024-02-13T04:56:01.435Z,89.1
2024-02-13T04:57:03.159Z,88.9
2024-02-13T04:58:01.639Z,88.7
2024-02-13T04:59:03.393Z,88.8
2024-02-13T05:00:03.454Z,88.9
2024-02-13T05:01:01.965Z,89
2024-02-13T05:02:02.029Z,89
2024-02-13T05:03:03.787Z,89.1
2024-02-13T05:04:03.967Z,89.1
2024-02-13T05:05:02.994Z,89
2024-02-13T05:06:03.329Z,88.9
2024-02-13T05:07:03.199Z,88.9
2024-02-13T05:08:01.673Z,88.9
2024-02-13T05:09:01.822Z,89
2024-02-13T05:10:03.513Z,88.9
2024-02-13T05:11:01.965Z,89
2024-02-13T05:12:02.128Z,89
2024-02-13T05:13:02.203Z,89.1
2024-02-13T05:14:01.406Z,89.3
2024-02-13T05:15:02.999Z,89.3
2024-02-13T05:16:01.491Z,89.4
2024-02-13T05:17:03.196Z,89.5
2024-02-13T05:18:01.838Z,89.5
2024-02-13T05:19:03.535Z,89.6
2024-02-13T05:20:03.512Z,89.5
2024-02-13T05:21:03.661Z,89.6
2024-02-13T05:22:02.844Z,89.6
2024-02-13T05:23:02.210Z,89.6
2024-02-13T05:24:03.032Z,89.7
2024-02-13T05:25:03.052Z,89.9
2024-02-13T05:26:01.470Z,89.9
2024-02-13T05:27:01.635Z,90
2024-02-13T05:28:03.370Z,90.1
2024-02-13T05:29:01.802Z,90.1
2024-02-13T05:30:03.557Z,90.1
2024-02-13T05:31:02.015Z,90.1
2024-02-13T05:32:02.106Z,90.1
2024-02-13T05:33:03.989Z,90.1
2024-02-13T05:34:01.482Z,90
2024-02-13T05:35:01.446Z,90
2024-02-13T05:36:01.576Z,90
2024-02-13T05:37:01.652Z,90
2024-02-13T05:38:01.758Z,90.1
2024-02-13T05:39:01.864Z,90.2
2024-02-13T05:40:03.593Z,90.3
2024-02-13T05:41:02.083Z,90.3
2024-02-13T05:42:03.966Z,90.4
2024-02-13T05:43:02.999Z,90.4
2024-02-13T05:44:03.013Z,90.5
2024-02-13T05:45:01.483Z,90.5
2024-02-13T05:46:03.246Z,90.6
2024-02-13T05:47:01.704Z,90.7
2024-02-13T05:48:03.559Z,90.8
2024-02-13T05:49:03.606Z,90.9
2024-02-13T05:50:03.650Z,91
2024-02-13T05:51:02.126Z,91.1
2024-02-13T05:52:03.899Z,91.1
2024-02-13T05:53:02.968Z,91.1
2024-02-13T05:54:03.182Z,91.2
2024-02-13T05:55:01.523Z,91.2
2024-02-13T05:56:01.668Z,91.2
2024-02-13T05:57:03.517Z,91.3
2024-02-13T05:58:03.505Z,91.2
2024-02-13T05:59:02.013Z,91.3
2024-02-13T06:00:03.803Z,91.3
2024-02-13T06:01:02.309Z,91.3
2024-02-13T06:03:01.378Z,91.4
2024-02-13T06:04:01.497Z,91.4
2024-02-13T06:05:03.204Z,91.4
2024-02-13T06:06:01.905Z,91.4
2024-02-13T06:07:03.556Z,91.5
2024-02-13T06:08:01.864Z,91.4
2024-02-13T06:09:03.715Z,91.4
2024-02-13T06:10:02.095Z,91.4
2024-02-13T06:11:03.819Z,91.4
2024-02-13T06:12:03.050Z,91.4
2024-02-13T06:13:03.143Z,91.4
2024-02-13T06:14:03.138Z,91.5
2024-02-13T06:15:01.695Z,91.5
2024-02-13T06:16:01.754Z,91.6
2024-02-13T06:17:01.834Z,91.6
2024-02-13T06:18:03.660Z,91.5
2024-02-13T06:19:02.278Z,91.4
2024-02-13T06:20:02.158Z,91.4
2024-02-13T06:21:02.315Z,91.4
2024-02-13T06:22:01.360Z,91.3
2024-02-13T06:23:01.463Z,91.4
2024-02-13T06:24:01.751Z,91.4
2024-02-13T06:25:03.265Z,91.4
2024-02-13T06:26:03.414Z,91.5
2024-02-13T06:27:03.089Z,91.5
2024-02-13T06:28:03.764Z,91.6
2024-02-13T06:29:02.082Z,91.6
2024-02-13T06:30:03.970Z,91.5
2024-02-13T06:31:01.281Z,91.6
2024-02-13T06:32:01.420Z,91.6
2024-02-13T06:33:01.734Z,91.6
2024-02-13T06:34:01.806Z,91.5
2024-02-13T06:35:01.745Z,91.5
2024-02-13T06:36:03.533Z,91.5
2024-02-13T06:37:03.516Z,91.6
2024-02-13T06:38:03.708Z,91.5
2024-02-13T06:39:03.814Z,91.5
2024-02-13T06:40:01.260Z,91.4
2024-02-13T06:41:01.371Z,91.4
2024-02-13T06:42:05.509Z,91.3
2024-02-13T06:43:01.575Z,91.2
2024-02-13T06:44:03.365Z,91.2
2024-02-13T06:45:02.007Z,91.2
2024-02-13T06:46:03.561Z,91.2
2024-02-13T06:47:02.002Z,91.2
2024-02-13T06:48:03.823Z,91.2
2024-02-13T06:49:02.511Z,91.2
2024-02-13T06:50:01.476Z,91.2
2024-02-13T06:51:01.743Z,91.2
2024-02-13T06:52:01.516Z,91.1
2024-02-13T06:53:01.606Z,91.1
2024-02-13T06:54:03.490Z,91.1
2024-02-13T06:55:03.519Z,91.1
2024-02-13T06:56:03.578Z,91.1
2024-02-13T06:57:02.068Z,91
2024-02-13T06:58:03.785Z,91
2024-02-13T06:59:02.256Z,90.9
2024-02-13T07:00:05.248Z,90.8
2024-02-13T07:01:01.576Z,90.7
2024-02-13T07:02:01.599Z,90.7
2024-02-13T07:03:03.352Z,90.6
2024-02-13T07:04:03.485Z,90.6
2024-02-13T07:05:03.514Z,90.6
2024-02-13T07:06:02.284Z,90.6
2024-02-13T07:07:13.754Z,90.6
2024-02-13T07:08:02.226Z,90.5
2024-02-13T07:09:03.219Z,90.5
2024-02-13T07:10:01.548Z,90.6
2024-02-13T07:11:01.474Z,90.6
2024-02-13T07:12:03.265Z,90.6
2024-02-13T07:13:03.391Z,90.6
2024-02-13T07:14:03.495Z,90.7
2024-02-13T07:15:02.006Z,90.8
2024-02-13T07:16:02.061Z,90.8
2024-02-13T07:17:02.171Z,90.8
2024-02-13T07:18:02.413Z,90.8
2024-02-13T07:19:01.448Z,90.9
2024-02-13T07:20:03.098Z,90.8
2024-02-13T07:21:07.737Z,90.8
2024-02-13T07:22:01.679Z,90.8
2024-02-13T07:23:01.806Z,90.8
2024-02-13T07:24:03.614Z,90.8
2024-02-13T07:25:03.624Z,90.9
2024-02-13T07:26:03.802Z,90.8
2024-02-13T07:27:04.133Z,90.8
2024-02-13T07:28:02.942Z,90.7
2024-02-13T07:29:03.038Z,90.7
2024-02-13T07:30:01.575Z,90.6
2024-02-13T07:31:01.625Z,90.6
2024-02-13T07:32:01.713Z,90.6
2024-02-13T07:33:01.881Z,90.5
2024-02-13T07:34:02.102Z,90.5
2024-02-13T07:35:03.660Z,90.5
2024-02-13T07:36:02.341Z,90.5
2024-02-13T07:37:02.246Z,90.5
2024-02-13T07:38:03.017Z,90.5
2024-02-13T07:39:03.093Z,90.5
2024-02-13T07:40:03.195Z,90.6
2024-02-13T07:41:01.648Z,90.5
2024-02-13T07:42:03.390Z,90.5
2024-02-13T07:43:01.866Z,90.4
2024-02-13T07:44:03.651Z,90.4
2024-02-13T07:45:02.407Z,90.3
2024-02-13T07:46:02.180Z,90.3
2024-02-13T07:47:02.935Z,90.1
2024-02-13T07:48:03.233Z,90
2024-02-13T07:49:03.229Z,89.9
2024-02-13T07:50:01.647Z,89.8
2024-02-13T07:51:01.779Z,89.8
2024-02-13T07:52:03.491Z,89.8
2024-02-13T07:53:03.571Z,89.9
2024-02-13T07:54:02.127Z,89.9
2024-02-13T07:55:03.777Z,89.8
2024-02-13T07:56:02.234Z,89.7
2024-02-13T07:57:03.005Z,89.7
2024-02-13T07:58:01.480Z,89.6
2024-02-13T07:59:01.547Z,89.6
2024-02-13T08:00:01.728Z,89.6
2024-02-13T08:01:01.829Z,89.6
2024-02-13T08:02:01.862Z,89.5
2024-02-13T08:03:02.038Z,89.5
2024-02-13T08:04:02.149Z,89.4
2024-02-13T08:05:02.192Z,89.4
2024-02-13T08:06:01.389Z,89.3
2024-02-13T08:07:01.386Z,89.3
2024-02-13T08:08:03.155Z,89.3
2024-02-13T08:09:03.222Z,89.4
2024-02-13T08:10:01.719Z,89.3
2024-02-13T08:11:03.444Z,89.2
2024-02-13T08:12:03.540Z,89.1
2024-02-13T08:13:02.041Z,88.9
2024-02-13T08:14:02.141Z,88.7
2024-02-13T08:15:02.306Z,88.7
2024-02-13T08:16:01.306Z,88.6
2024-02-13T08:17:01.477Z,88.1
2024-02-13T08:18:03.197Z,87.8
2024-02-13T08:19:03.368Z,87.7
2024-02-13T08:20:03.381Z,87.7
2024-02-13T08:21:01.979Z,87.6
2024-02-13T08:22:01.941Z,87.8
2024-02-13T08:23:02.070Z,87.8
2024-02-13T08:24:03.825Z,87.8
2024-02-13T08:25:02.942Z,87.7
2024-02-13T08:26:01.385Z,87.6
2024-02-13T08:27:03.128Z,87.6
2024-02-13T08:28:03.240Z,87.6
2024-02-13T08:29:03.334Z,87.6
2024-02-13T08:30:03.569Z,87.7
2024-02-13T08:31:03.518Z,87.8
2024-02-13T08:32:01.993Z,87.9
2024-02-13T08:33:04.020Z,88
2024-02-13T08:34:02.457Z,88
2024-02-13T08:35:01.451Z,87.8
2024-02-13T08:36:01.476Z,87.8
2024-02-13T08:37:01.606Z,87.8
2024-02-13T08:38:03.293Z,87.2
2024-02-13T08:39:03.357Z,86.8
2024-02-13T08:40:03.463Z,86.7
2024-02-13T08:41:01.957Z,86.8
2024-02-13T08:42:02.135Z,86.2
2024-02-13T08:43:02.208Z,86
2024-02-13T08:44:01.537Z,85.8
2024-02-13T08:45:03.088Z,85.4
2024-02-13T08:46:01.506Z,85.4
2024-02-13T08:47:01.563Z,85.6
2024-02-13T08:48:03.476Z,85.5
2024-02-13T08:49:03.705Z,84.8
2024-02-13T08:50:03.750Z,84.7
2024-02-13T08:51:03.735Z,85
2024-02-13T08:52:02.113Z,84.6
2024-02-13T08:53:02.278Z,85.2
2024-02-13T08:54:03.000Z,84.9
2024-02-13T08:55:01.447Z,84.8
2024-02-13T08:56:03.216Z,84.9
2024-02-13T08:57:03.345Z,85.2
2024-02-13T08:58:01.746Z,85
2024-02-13T08:59:01.910Z,85.2
2024-02-13T09:00:02.006Z,84.8
2024-02-13T09:01:02.127Z,84.7
2024-02-13T09:02:03.843Z,85.1
2024-02-13T09:03:01.356Z,85.7
2024-02-13T09:04:01.428Z,86.1
2024-02-13T09:05:03.335Z,85.6
2024-02-13T09:06:01.662Z,84.7
2024-02-13T09:07:03.364Z,83.8
2024-02-13T09:08:01.816Z,84
2024-02-13T09:09:01.959Z,84.2
2024-02-13T09:10:03.677Z,84.3
2024-02-13T09:11:02.098Z,84.6
2024-02-13T09:12:02.304Z,84.8
2024-02-13T09:13:01.369Z,84.8
2024-02-13T09:14:01.511Z,84.3
2024-02-13T09:15:01.593Z,84.6
2024-02-13T09:16:03.294Z,84.3
2024-02-13T09:17:03.366Z,84.2
2024-02-13T09:18:01.983Z,84.2
2024-02-13T09:19:03.670Z,84
2024-02-13T09:20:03.669Z,84.6
2024-02-13T09:21:02.205Z,84
2024-02-13T09:22:02.902Z,84.4
2024-02-13T09:23:03.025Z,83.9
2024-02-13T09:24:03.218Z,84
2024-02-13T09:25:01.575Z,83.9
2024-02-13T09:26:01.670Z,83.5
2024-02-13T09:27:01.937Z,84
2024-02-13T09:28:01.918Z,83.5
2024-02-13T09:29:03.678Z,83.5
2024-02-13T09:30:03.822Z,83.2
2024-02-13T09:31:03.870Z,83.2
2024-02-13T09:32:01.300Z,83.3
2024-02-13T09:33:01.535Z,83.9
2024-02-13T09:34:01.612Z,83.8
2024-02-13T09:35:03.397Z,83.7
2024-02-13T09:36:03.439Z,83
2024-02-13T09:37:01.843Z,82.4
2024-02-13T09:38:03.595Z,82.8
2024-02-13T09:39:02.148Z,82.2
2024-02-13T09:40:02.190Z,82.6
2024-02-13T09:41:02.885Z,83.2
2024-02-13T09:42:01.374Z,83.1
2024-02-13T09:43:03.095Z,82.4
2024-02-13T09:44:03.202Z,81.9
2024-02-13T09:45:03.386Z,82.4
2024-02-13T09:46:01.812Z,81.9
2024-02-13T09:47:03.515Z,81.5
2024-02-13T09:48:02.085Z,81.3
2024-02-13T09:49:02.194Z,81.5
2024-02-13T09:50:02.294Z,82.2
2024-02-13T09:51:03.074Z,81.9
2024-02-13T09:52:01.410Z,82.2
2024-02-13T09:53:03.188Z,81.2
2024-02-13T09:54:03.297Z,80.5
2024-02-13T09:55:03.386Z,80.3
2024-02-13T09:56:01.877Z,79.7
2024-02-13T09:57:02.099Z,79.4
2024-02-13T09:58:02.027Z,79.8
2024-02-13T09:59:03.775Z,81.3
2024-02-13T10:00:02.310Z,82.8
2024-02-13T10:01:02.019Z,81.7
2024-02-13T10:02:03.081Z,80.7
2024-02-13T10:03:01.624Z,79.4
2024-02-13T10:04:03.457Z,80.2
2024-02-13T10:05:01.758Z,80.7
2024-02-13T10:06:02.063Z,80.6
2024-02-13T10:07:02.012Z,79.3
2024-02-13T10:08:02.051Z,80.2
2024-02-13T10:09:02.344Z,79.8
2024-02-13T10:10:02.910Z,79.7
2024-02-13T10:11:03.247Z,79.8
2024-02-13T10:12:01.583Z,80.8
2024-02-13T10:13:01.568Z,80.1
2024-02-13T10:14:01.725Z,80.8
2024-02-13T10:15:01.901Z,80.8
2024-02-13T10:16:01.912Z,80.1
2024-02-13T10:17:02.013Z,79.5
2024-02-13T10:18:02.294Z,80.7
2024-02-13T10:19:02.463Z,79.7
2024-02-13T10:20:03.049Z,79.3
2024-02-13T10:21:01.501Z,80.3
2024-02-13T10:22:01.548Z,81.6
2024-02-13T10:23:01.767Z,81.1
2024-02-13T10:24:01.909Z,80
2024-02-13T10:25:01.865Z,79.4
2024-02-13T10:26:01.959Z,79.8
2024-02-13T10:27:02.204Z,79.4
2024-02-13T10:28:02.237Z,79.8
2024-02-13T10:29:01.298Z,80.4
2024-02-13T10:30:03.162Z,79.7
2024-02-13T10:31:03.140Z,78.6
2024-02-13T10:32:01.583Z,79.8
2024-02-13T10:33:03.423Z,79.4
2024-02-13T10:34:03.474Z,80
2024-02-13T10:35:01.918Z,79.4
2024-02-13T10:36:03.739Z,78.6
2024-02-13T10:37:02.152Z,79.2
2024-02-13T10:38:02.222Z,79.7
2024-02-13T10:39:02.990Z,79.2
2024-02-13T10:40:01.476Z,78.2
2024-02-13T10:41:03.174Z,79.3
2024-02-13T10:42:01.776Z,78.8
2024-02-13T10:43:01.731Z,78.6
2024-02-13T10:44:03.487Z,79.1
2024-02-13T10:45:03.715Z,78.6
2024-02-13T10:46:03.723Z,78
2024-02-13T10:47:02.189Z,77.2
2024-02-13T10:48:01.342Z,76.5
2024-02-13T10:49:01.406Z,76.9
2024-02-13T10:50:03.162Z,78.1
2024-02-13T10:51:03.311Z,79.8
2024-02-13T10:52:01.692Z,78.7
2024-02-13T10:53:01.796Z,78
2024-02-13T10:54:03.559Z,76.9
2024-02-13T10:55:03.654Z,78.1
2024-02-13T10:56:02.100Z,78.2
2024-02-13T10:57:04.061Z,77.4
2024-02-13T10:58:03.426Z,78.9
2024-02-13T10:59:03.172Z,77.3
2024-02-13T11:00:01.794Z,78.7
2024-02-13T11:01:01.806Z,77.5
2024-02-13T11:02:02.474Z,76.9
2024-02-13T11:03:03.528Z,77.6
2024-02-13T11:04:01.992Z,77.9
2024-02-13T11:05:02.216Z,78
2024-02-13T11:06:02.305Z,78.1
2024-02-13T11:07:02.981Z,75.7
2024-02-13T11:08:01.364Z,76.9
2024-02-13T11:09:01.681Z,77.4
2024-02-13T11:10:01.585Z,76.7
2024-02-13T11:11:03.313Z,76.5
2024-02-13T11:12:02.036Z,76.7
2024-02-13T11:13:01.968Z,76.7
2024-02-13T11:14:03.792Z,76.7
2024-02-13T11:15:03.825Z,79
2024-02-13T11:16:03.876Z,76.8
2024-02-13T11:17:02.954Z,76
2024-02-13T11:18:03.132Z,77.1
2024-02-13T11:19:03.319Z,78.1
2024-02-13T11:20:01.958Z,78
2024-02-13T11:21:03.671Z,77.8
2024-02-13T11:22:01.901Z,77.2
2024-02-13T11:23:03.741Z,77.1
2024-02-13T11:24:03.816Z,77.1
2024-02-13T11:25:02.198Z,77.9
2024-02-13T11:26:01.318Z,76.7
2024-02-13T11:27:12.972Z,75.2
2024-02-13T11:28:03.117Z,75
2024-02-13T11:29:01.573Z,77.2
2024-02-13T11:30:02.563Z,77.5
2024-02-13T11:31:03.423Z,77.5
2024-02-13T11:32:03.546Z,76.6
2024-02-13T11:33:02.130Z,76.9
2024-02-13T11:34:02.240Z,74.1
2024-02-13T11:35:04.043Z,72.3
2024-02-13T11:36:02.963Z,71.4
2024-02-13T11:37:03.038Z,71.8
2024-02-13T11:38:03.137Z,72.1
2024-02-13T11:39:03.265Z,71.9
2024-02-13T11:40:03.314Z,72.3
2024-02-13T11:41:03.471Z,72.7
2024-02-13T11:42:01.998Z,72.4
2024-02-13T11:43:02.026Z,72.6
2024-02-13T11:44:02.113Z,72.7
2024-02-13T11:45:03.968Z,72.8
2024-02-13T11:46:01.352Z,72.8
2024-02-13T11:47:01.488Z,72.5
2024-02-13T11:48:01.785Z,71.7
2024-02-13T11:49:03.516Z,73.7
2024-02-13T11:50:02.120Z,74.1
2024-02-13T11:51:04.308Z,73.4
2024-02-13T11:52:03.649Z,73.9
2024-02-13T11:53:02.051Z,73.5
2024-02-13T11:54:03.781Z,74.5
2024-02-13T11:55:02.965Z,74.1
2024-02-13T11:56:03.055Z,74.6
2024-02-13T11:57:01.736Z,74.1
2024-02-13T11:58:01.635Z,74.3
2024-02-13T11:59:01.698Z,72.6
2024-02-13T12:00:02.020Z,73.1
2024-02-13T12:01:02.481Z,72.5
2024-02-13T12:02:02.017Z,73.6
2024-02-13T12:03:02.345Z,73.5
2024-02-13T12:04:04.029Z,73.3
2024-02-13T12:05:01.487Z,74.8
2024-02-13T12:06:03.165Z,74.9
2024-02-13T12:07:01.575Z,75
2024-02-13T12:08:01.696Z,74.6
2024-02-13T12:09:01.839Z,74.2
2024-02-13T12:10:03.529Z,74.5
2024-02-13T12:11:02.008Z,73.6
2024-02-13T12:12:03.797Z,72.3
2024-02-13T12:13:03.869Z,72.2
2024-02-13T12:14:02.950Z,72.3
2024-02-13T12:15:03.075Z,73.6
2024-02-13T12:16:03.162Z,73.5
2024-02-13T12:17:03.223Z,73.8
2024-02-13T12:18:01.923Z,72
2024-02-13T12:19:03.624Z,72.1
2024-02-13T12:20:01.981Z,72.5
2024-02-13T12:21:03.689Z,73.2
2024-02-13T12:22:03.772Z,73.3
2024-02-13T12:23:02.252Z,72.4
2024-02-13T12:24:01.380Z,73
2024-02-13T12:25:01.461Z,72.4
2024-02-13T12:26:01.574Z,72.4
2024-02-13T12:27:03.459Z,72.8
2024-02-13T12:28:01.889Z,71.7
2024-02-13T12:29:03.514Z,71.5
2024-02-13T12:30:02.066Z,71.6
2024-02-13T12:31:02.092Z,72
2024-02-13T12:32:02.220Z,72.4
2024-02-13T12:33:03.000Z,71.9
2024-02-13T12:34:01.520Z,72.2
2024-02-13T12:35:03.295Z,72
2024-02-13T12:36:03.318Z,72.7
2024-02-13T12:37:01.703Z,72.5
2024-02-13T12:38:03.415Z,73.5
2024-02-13T12:39:03.586Z,71.9
2024-02-13T12:40:02.065Z,72.8
2024-02-13T12:41:02.152Z,72.6
2024-02-13T12:42:06.296Z,72
2024-02-13T12:43:01.349Z,72.6
2024-02-13T12:44:01.405Z,72.4
2024-02-13T12:45:01.630Z,73.9
2024-02-13T12:46:03.340Z,73.6
2024-02-13T12:47:01.759Z,72.9
2024-02-13T12:48:02.079Z,72.2
2024-02-13T12:49:03.696Z,71.3
2024-02-13T12:50:03.798Z,72
2024-02-13T12:51:02.222Z,71.7
2024-02-13T12:52:01.236Z,71.9
2024-02-13T12:53:01.358Z,71.5
2024-02-13T12:54:03.118Z,71.6
2024-02-13T12:55:01.569Z,72.5
2024-02-13T12:56:01.665Z,73.7
2024-02-13T12:57:01.886Z,73.2
2024-02-13T12:58:03.558Z,72.8
2024-02-13T12:59:03.658Z,73.8
2024-02-13T13:00:02.393Z,72.9
2024-02-13T13:01:03.918Z,72
2024-02-13T13:02:01.332Z,71.7
2024-02-13T13:03:01.467Z,72.1
2024-02-13T13:04:01.593Z,72.4
2024-02-13T13:05:01.644Z,72.5
2024-02-13T13:06:01.826Z,72.3
2024-02-13T13:07:01.890Z,72.2
2024-02-13T13:08:03.582Z,72.9
2024-02-13T13:10:03.809Z,71
2024-02-13T13:11:02.914Z,71.3
2024-02-13T13:12:03.115Z,72
2024-02-13T13:13:01.514Z,71.7
2024-02-13T13:14:03.201Z,71.3
2024-02-13T13:15:09.463Z,72.2
2024-02-13T13:16:01.774Z,73.5
2024-02-13T13:17:01.944Z,73.5
2024-02-13T13:18:02.104Z,71.1
2024-02-13T13:19:04.094Z,73.1
2024-02-13T13:20:02.444Z,71.6
2024-02-13T13:21:03.004Z,72.1
2024-02-13T13:22:01.425Z,71.3
2024-02-13T13:23:03.148Z,71.1
2024-02-13T13:24:01.703Z,70.7
2024-02-13T13:25:01.806Z,71.2
2024-02-13T13:26:01.830Z,72.3